createdAt,value
2022-10-18T00:00:56.568Z,102008.16
2022-10-18T00:03:23.873Z,102003.06
2022-10-18T00:05:51.473Z,102007.47
2022-10-18T00:08:24.599Z,102003.69
2022-10-18T00:10:51.571Z,102010.81
2022-10-18T00:13:23.001Z,102010.81
2022-10-18T00:15:58.323Z,102017.34
2022-10-18T00:18:25.617Z,102009.22
2022-10-18T00:21:09.708Z,102006.78
2022-10-18T00:23:36.989Z,102010.06
2022-10-18T00:26:24.178Z,102010.38
2022-10-18T00:28:55.548Z,102012.75
2022-10-18T00:31:35.766Z,102018.50
2022-10-18T00:34:10.624Z,102021.75
2022-10-18T00:36:37.981Z,102022.59
2022-10-18T00:39:07.075Z,102036.44
2022-10-18T00:41:36.504Z,102037.50
2022-10-18T00:44:26.895Z,102030.75
2022-10-18T00:47:00.551Z,102027.78
2022-10-18T00:49:39.912Z,102025.91
2022-10-18T00:52:15.465Z,102017.47
2022-10-18T00:54:44.847Z,102015.31
2022-10-18T00:57:12.852Z,102025.91
2022-10-18T00:59:41.372Z,102022.38
2022-10-18T01:02:08.931Z,102026.47
2022-10-18T01:04:36.432Z,102027.28
2022-10-18T01:07:27.305Z,102033.84
2022-10-18T01:10:27.296Z,102021.91
2022-10-18T01:13:51.337Z,102040.06
2022-10-18T01:16:38.428Z,102035.22
2022-10-18T01:19:26.592Z,102030.06
2022-10-18T01:22:05.710Z,102035.47
2022-10-18T01:24:54.846Z,102026.41
2022-10-18T01:27:49.169Z,102032.50
2022-10-18T01:30:32.801Z,102031.25
2022-10-18T01:33:25.654Z,102022.09
2022-10-18T01:36:15.659Z,102016.28
2022-10-18T01:38:44.189Z,102008.16
2022-10-18T01:41:15.721Z,102016.13
2022-10-18T01:43:45.498Z,102006.94
2022-10-18T01:46:18.396Z,102005.66
2022-10-18T01:48:46.099Z,102009.22
2022-10-18T01:51:12.899Z,102015.25
2022-10-18T01:53:40.334Z,102019.91
2022-10-18T01:56:34.133Z,102019.41
2022-10-18T01:59:34.864Z,102017.81
2022-10-18T02:02:44.304Z,102015.13
2022-10-18T02:05:46.577Z,102011.06
2022-10-18T02:08:42.962Z,102011.09
2022-10-18T02:11:13.797Z,102013.00
2022-10-18T02:14:13.259Z,102012.75
2022-10-18T02:16:49.997Z,102010.63
2022-10-18T02:19:41.151Z,102010.09
2022-10-18T02:22:11.210Z,102018.78
2022-10-18T02:24:45.023Z,102021.53
2022-10-18T02:27:12.458Z,102022.34
2022-10-18T02:29:41.064Z,102029.16
2022-10-18T02:32:30.920Z,102017.75
2022-10-18T02:35:20.563Z,102016.94
2022-10-18T02:37:49.286Z,102024.00
2022-10-18T02:40:20.290Z,102029.19
2022-10-18T02:42:55.619Z,102024.84
2022-10-18T02:48:14.600Z,102026.47
2022-10-18T02:50:41.535Z,102039.53
2022-10-18T02:53:08.620Z,102025.94
2022-10-18T02:55:35.620Z,102030.56
2022-10-18T02:58:02.532Z,102036.00
2022-10-18T03:00:29.349Z,102033.00
2022-10-18T03:02:56.760Z,102041.44
2022-10-18T03:05:23.628Z,102036.81
2022-10-18T03:07:51.115Z,102039.53
2022-10-18T03:10:17.984Z,102048.50
2022-10-18T03:12:44.895Z,102038.44
2022-10-18T03:15:12.027Z,102042.81
2022-10-18T03:17:38.894Z,102046.59
2022-10-18T03:20:06.594Z,102046.59
2022-10-18T03:22:39.682Z,102059.38
2022-10-18T03:25:09.654Z,102072.38
2022-10-18T03:30:27.860Z,102079.69
2022-10-18T03:32:54.777Z,102064.47
2022-10-18T03:35:22.425Z,102054.16
2022-10-18T03:37:49.642Z,102053.84
2022-10-18T03:40:17.106Z,102056.84
2022-10-18T03:42:44.261Z,102055.47
2022-10-18T03:45:11.288Z,102045.13
2022-10-18T03:47:38.235Z,102035.63
2022-10-18T03:50:05.933Z,102044.84
2022-10-18T03:52:33.626Z,102047.56
2022-10-18T03:55:00.829Z,102055.38
2022-10-18T03:57:27.793Z,102055.09
2022-10-18T03:59:54.715Z,102066.75
2022-10-18T04:02:21.669Z,102067.56
2022-10-18T04:04:49.445Z,102064.84
2022-10-18T04:07:16.333Z,102055.31
2022-10-18T04:09:43.211Z,102055.56
2022-10-18T04:12:10.142Z,102064.50
2022-10-18T04:14:37.192Z,102063.69
2022-10-18T04:17:05.156Z,102078.59
2022-10-18T04:19:32.077Z,102061.19
2022-10-18T04:21:59.354Z,102050.88
2022-10-18T04:24:26.381Z,102069.59
2022-10-18T04:26:53.475Z,102065.25
2022-10-18T04:29:20.332Z,102059.53
2022-10-18T04:31:47.225Z,102062.25
2022-10-18T04:34:14.412Z,102056.25
2022-10-18T04:36:41.292Z,102065.22
2022-10-18T04:39:08.147Z,102067.38
2022-10-18T04:41:35.339Z,102066.81
2022-10-18T04:44:02.190Z,102074.97
2022-10-18T04:46:29.227Z,102063.28
2022-10-18T04:48:56.182Z,102058.59
2022-10-18T04:51:23.144Z,102068.66
2022-10-18T04:53:50.167Z,102073.25
2022-10-18T04:56:17.031Z,102061.53
2022-10-18T04:58:43.824Z,102054.47
2022-10-18T05:01:11.126Z,102050.66
2022-10-18T05:03:38.135Z,102057.97
2022-10-18T05:06:05.807Z,102063.09
2022-10-18T05:08:35.286Z,102063.63
2022-10-18T05:11:03.748Z,102074.72
2022-10-18T05:16:21.853Z,102048.63
2022-10-18T05:18:48.879Z,102044.53
2022-10-18T05:21:16.767Z,102048.91
2022-10-18T05:23:43.629Z,102055.09
2022-10-18T05:26:11.285Z,102059.13
2022-10-18T05:28:40.243Z,102060.78
2022-10-18T05:31:09.833Z,102059.97
2022-10-18T05:33:36.918Z,102056.69
2022-10-18T05:36:04.336Z,102065.09
2022-10-18T05:38:31.451Z,102061.00
2022-10-18T05:40:59.474Z,102056.59
2022-10-18T05:43:29.802Z,102063.94
2022-10-18T05:45:57.073Z,102054.66
2022-10-18T05:48:24.678Z,102046.53
2022-10-18T05:50:51.769Z,102055.75
2022-10-18T05:53:35.618Z,102054.94
2022-10-18T05:56:05.504Z,102058.72
2022-10-18T05:58:32.470Z,102056.25
2022-10-18T06:01:04.753Z,102061.38
2022-10-18T06:03:32.678Z,102064.03
2022-10-18T06:06:00.944Z,102070.53
2022-10-18T06:08:27.908Z,102075.91
2022-10-18T06:10:54.730Z,102068.84
2022-10-18T06:13:21.911Z,102073.16
2022-10-18T06:15:49.073Z,102069.88
2022-10-18T06:18:16.457Z,102060.09
2022-10-18T06:20:43.242Z,102055.75
2022-10-18T06:23:10.204Z,102056.06
2022-10-18T06:25:37.119Z,102063.38
2022-10-18T06:28:10.137Z,102051.72
2022-10-18T06:30:39.028Z,102050.34
2022-10-18T06:33:05.974Z,102052.75
2022-10-18T06:35:33.899Z,102045.16
2022-10-18T06:38:00.989Z,102044.91
2022-10-18T06:40:27.769Z,102049.00
2022-10-18T06:43:00.515Z,102053.34
2022-10-18T06:45:37.437Z,102051.72
2022-10-18T06:48:04.618Z,102045.22
2022-10-18T06:50:31.815Z,102052.78
2022-10-18T06:52:58.993Z,102054.94
2022-10-18T06:55:26.021Z,102054.63
2022-10-18T06:57:53.587Z,102059.78
2022-10-18T07:00:20.506Z,102067.94
2022-10-18T07:02:47.564Z,102058.94
2022-10-18T07:05:14.414Z,102058.72
2022-10-18T07:07:41.314Z,102057.66
2022-10-18T07:10:12.622Z,102056.25
2022-10-18T07:12:39.732Z,102056.53
2022-10-18T07:15:09.542Z,102067.66
2022-10-18T07:17:37.069Z,102079.59
2022-10-18T07:20:04.287Z,102087.16
2022-10-18T07:22:31.301Z,102090.94
2022-10-18T07:24:58.119Z,102099.56
2022-10-18T07:27:25.171Z,102101.72
2022-10-18T07:29:52.294Z,102111.75
2022-10-18T07:32:19.488Z,102111.16
2022-10-18T07:34:46.574Z,102113.94
2022-10-18T07:37:13.522Z,102122.88
2022-10-18T07:39:40.643Z,102118.84
2022-10-18T07:42:07.652Z,102128.88
2022-10-18T07:44:34.639Z,102132.41
2022-10-18T07:47:01.776Z,102124.03
2022-10-18T07:49:28.918Z,102130.31
2022-10-18T07:51:55.893Z,102135.50
2022-10-18T07:54:22.910Z,102127.34
2022-10-18T07:56:49.765Z,102128.47
2022-10-18T07:59:16.778Z,102126.34
2022-10-18T08:01:43.900Z,102129.09
2022-10-18T08:04:16.074Z,102130.22
2022-10-18T08:06:43.545Z,102128.09
2022-10-18T08:09:10.554Z,102115.91
2022-10-18T08:11:37.425Z,102119.50
2022-10-18T08:14:04.449Z,102116.22
2022-10-18T08:18:59.790Z,102107.56
2022-10-18T08:21:27.409Z,102107.56
2022-10-18T08:23:54.407Z,102110.28
2022-10-18T08:26:23.322Z,102101.06
2022-10-18T08:29:03.641Z,102104.59
2022-10-18T08:31:38.145Z,102107.56
2022-10-18T08:34:05.202Z,102101.06
2022-10-18T08:36:32.229Z,102099.13
2022-10-18T08:38:59.411Z,102106.13
2022-10-18T08:41:39.012Z,102098.50
2022-10-18T08:44:19.768Z,102107.66
2022-10-18T08:46:51.356Z,102109.25
2022-10-18T08:49:47.135Z,102115.44
2022-10-18T08:52:41.700Z,102113.50
2022-10-18T08:55:36.484Z,102112.63
2022-10-18T08:58:15.120Z,102112.06
2022-10-18T09:00:58.679Z,102106.06
2022-10-18T09:04:13.430Z,102110.09
2022-10-18T09:07:08.139Z,102108.94
2022-10-18T09:10:33.802Z,102107.56
2022-10-18T09:13:41.250Z,102108.50
2022-10-18T09:16:22.366Z,102111.09
2022-10-18T09:19:30.933Z,102103.41
2022-10-18T09:22:17.624Z,102124.75
2022-10-18T09:25:22.888Z,102135.47
2022-10-18T09:27:55.153Z,102134.84
2022-10-18T09:31:09.621Z,102130.19
2022-10-18T09:33:53.659Z,102124.69
2022-10-18T09:36:30.490Z,102117.06
2022-10-18T09:39:03.780Z,102120.03
2022-10-18T09:41:53.772Z,102122.16
2022-10-18T09:44:30.606Z,102124.28
2022-10-18T09:47:13.411Z,102124.28
2022-10-18T09:49:48.012Z,102125.13
2022-10-18T09:52:39.903Z,102130.03
2022-10-18T09:55:20.686Z,102113.47
2022-10-18T09:57:53.635Z,102108.56
2022-10-18T10:00:31.730Z,102123.22
2022-10-18T10:03:01.914Z,102118.88
2022-10-18T10:05:28.927Z,102119.13
2022-10-18T10:08:02.038Z,102119.69
2022-10-18T10:10:31.651Z,102132.16
2022-10-18T10:13:26.332Z,102133.00
2022-10-18T10:16:03.676Z,102131.44
2022-10-18T10:18:40.312Z,102126.00
2022-10-18T10:21:13.718Z,102120.53
2022-10-18T10:24:07.167Z,102121.59
2022-10-18T10:26:36.549Z,102121.84
2022-10-18T10:29:04.408Z,102124.03
2022-10-18T10:31:33.807Z,102121.09
2022-10-18T10:34:14.725Z,102119.22
2022-10-18T10:36:51.371Z,102117.56
2022-10-18T10:39:20.885Z,102116.75
2022-10-18T10:41:50.783Z,102113.78
2022-10-18T10:44:24.470Z,102107.88
2022-10-18T10:46:52.572Z,102114.09
2022-10-18T10:49:44.086Z,102092.19
2022-10-18T10:52:28.613Z,102089.00
2022-10-18T10:57:48.149Z,102087.09
2022-10-18T11:00:33.862Z,102077.09
2022-10-18T11:03:28.005Z,102076.03
2022-10-18T11:05:57.840Z,102067.34
2022-10-18T11:08:30.414Z,102071.69
2022-10-18T11:11:27.697Z,102066.00
2022-10-18T11:14:24.566Z,102068.47
2022-10-18T11:17:12.171Z,102066.91
2022-10-18T11:20:06.875Z,102064.69
2022-10-18T11:22:41.526Z,102071.25
2022-10-18T11:25:15.988Z,102066.41
2022-10-18T11:28:49.912Z,102072.38
2022-10-18T11:32:00.548Z,102069.34
2022-10-18T11:38:45.937Z,102067.97
2022-10-18T11:41:36.556Z,102066.41
2022-10-18T11:44:21.217Z,102069.91
2022-10-18T11:47:08.292Z,102068.59
2022-10-18T11:50:12.822Z,102060.00
2022-10-18T11:52:50.075Z,102056.78
2022-10-18T11:55:47.261Z,102066.63
2022-10-18T11:58:48.961Z,102057.41
2022-10-18T12:01:38.556Z,102060.13
2022-10-18T12:04:17.855Z,102061.78
2022-10-18T12:06:49.015Z,102045.25
2022-10-18T12:09:27.920Z,102042.56
2022-10-18T12:12:06.648Z,102040.66
2022-10-18T12:14:40.817Z,102036.81
2022-10-18T12:17:42.071Z,102049.28
2022-10-18T12:20:36.073Z,102043.38
2022-10-18T12:23:13.561Z,102042.31
2022-10-18T12:25:46.010Z,102040.41
2022-10-18T12:29:16.807Z,102054.22
2022-10-18T12:31:50.435Z,102045.50
2022-10-18T12:34:23.598Z,102045.06
2022-10-18T12:37:21.565Z,102044.06
2022-10-18T12:40:18.501Z,102031.06
2022-10-18T12:42:50.727Z,102035.66
2022-10-18T12:45:35.253Z,102024.53
2022-10-18T12:48:27.985Z,102031.84
2022-10-18T12:51:04.863Z,102033.72
2022-10-18T12:53:33.544Z,102014.44
2022-10-18T12:56:28.339Z,102023.72
2022-10-18T12:59:17.096Z,102022.31
2022-10-18T13:01:53.518Z,102022.06
2022-10-18T13:04:40.605Z,102026.88
2022-10-18T13:07:11.923Z,102021.44
2022-10-18T13:10:16.387Z,102016.91
2022-10-18T13:13:39.228Z,102027.22
2022-10-18T13:16:38.207Z,102022.63
2022-10-18T13:19:20.821Z,102031.94
2022-10-18T13:21:59.005Z,102026.84
2022-10-18T13:25:04.245Z,102032.56
2022-10-18T13:28:02.554Z,102020.34
2022-10-18T13:31:27.661Z,102034.53
2022-10-18T13:33:54.895Z,102032.13
2022-10-18T13:36:29.539Z,102026.56
2022-10-18T13:38:57.592Z,102035.03
2022-10-18T13:41:43.538Z,102021.06
2022-10-18T13:44:33.268Z,102003.22
2022-10-18T13:47:32.678Z,102012.22
2022-10-18T13:50:17.250Z,102019.28
2022-10-18T13:53:02.415Z,102027.16
2022-10-18T13:55:44.655Z,102022.03
2022-10-18T13:59:05.703Z,102024.53
2022-10-18T14:02:10.316Z,102026.78
2022-10-18T14:05:42.009Z,102021.22
2022-10-18T14:08:52.292Z,102026.13
2022-10-18T14:14:38.182Z,102045.09
2022-10-18T14:17:29.990Z,102037.97
2022-10-18T14:20:01.699Z,102045.03
2022-10-18T14:22:46.563Z,102047.00
2022-10-18T14:25:26.801Z,102044.06
2022-10-18T14:28:27.342Z,102053.34
2022-10-18T14:31:07.394Z,102050.16
2022-10-18T14:33:57.912Z,102045.34
2022-10-18T14:36:30.397Z,102048.41
2022-10-18T14:39:03.695Z,102050.31
2022-10-18T14:41:37.564Z,102048.16
2022-10-18T14:44:19.289Z,102057.38
2022-10-18T14:46:59.908Z,102057.38
2022-10-18T14:49:27.219Z,102051.97
2022-10-18T14:51:58.687Z,102059.56
2022-10-18T14:54:36.830Z,102051.13
2022-10-18T14:57:05.846Z,102050.56
2022-10-18T14:59:52.014Z,102047.22
2022-10-18T15:02:25.857Z,102037.94
2022-10-18T15:05:16.007Z,102054.22
2022-10-18T15:07:43.931Z,102042.47
2022-10-18T15:10:26.797Z,102047.34
2022-10-18T15:13:18.903Z,102048.28
2022-10-18T15:15:46.810Z,102051.72
2022-10-18T15:18:23.986Z,102035.94
2022-10-18T15:21:24.724Z,102056.22
2022-10-18T15:23:54.143Z,102046.66
2022-10-18T15:26:30.291Z,102053.91
2022-10-18T15:29:01.458Z,102059.78
2022-10-18T15:31:43.031Z,102053.25
2022-10-18T15:34:26.120Z,102060.78
2022-10-18T15:36:55.822Z,102055.00
2022-10-18T15:39:31.007Z,102052.22
2022-10-18T15:42:00.087Z,102047.28
2022-10-18T15:44:34.644Z,102047.94
2022-10-18T15:47:13.906Z,102062.19
2022-10-18T15:49:51.444Z,102054.78
2022-10-18T15:52:37.754Z,102051.44
2022-10-18T15:55:30.103Z,102054.50
2022-10-18T15:58:16.957Z,102065.19
2022-10-18T16:00:47.442Z,102074.06
2022-10-18T16:06:12.325Z,102067.06
2022-10-18T16:08:49.093Z,102063.94
2022-10-18T16:11:22.994Z,102062.47
2022-10-18T16:13:54.016Z,102069.38
2022-10-18T16:16:26.727Z,102067.09
2022-10-18T16:18:53.846Z,102068.31
2022-10-18T16:21:24.028Z,102072.00
2022-10-18T16:23:51.521Z,102079.69
2022-10-18T16:26:20.076Z,102074.69
2022-10-18T16:28:49.217Z,102087.53
2022-10-18T16:31:26.312Z,102092.53
2022-10-18T16:33:54.957Z,102099.97
2022-10-18T16:36:29.316Z,102101.19
2022-10-18T16:39:09.882Z,102094.03
2022-10-18T16:41:41.640Z,102100.41
2022-10-18T16:44:08.833Z,102097.03
2022-10-18T16:46:39.254Z,102100.69
2022-10-18T16:49:07.685Z,102104.13
2022-10-18T16:51:34.682Z,102100.75
2022-10-18T16:54:01.858Z,102109.31
2022-10-18T16:56:34.208Z,102103.00
2022-10-18T16:59:05.161Z,102107.47
2022-10-18T17:01:32.162Z,102111.69
2022-10-18T17:03:59.064Z,102117.56
2022-10-18T17:06:29.732Z,102112.28
2022-10-18T17:08:57.355Z,102110.06
2022-10-18T17:11:27.527Z,102115.13
2022-10-18T17:13:55.037Z,102113.16
2022-10-18T17:19:20.397Z,102112.31
2022-10-18T17:21:47.415Z,102117.59
2022-10-18T17:24:20.704Z,102120.88
2022-10-18T17:27:12.435Z,102118.09
2022-10-18T17:29:40.881Z,102110.69
2022-10-18T17:35:24.827Z,102112.00
2022-10-18T17:38:16.574Z,102119.72
2022-10-18T17:40:43.512Z,102121.47
2022-10-18T17:43:13.191Z,102123.59
2022-10-18T17:46:05.229Z,102123.00
2022-10-18T17:48:32.144Z,102120.66
2022-10-18T17:50:59.314Z,102123.81
2022-10-18T17:53:30.736Z,102128.63
2022-10-18T17:56:02.401Z,102137.38
2022-10-18T17:58:30.953Z,102131.63
2022-10-18T18:01:15.797Z,102138.31
2022-10-18T18:03:47.804Z,102141.69
2022-10-18T18:06:40.878Z,102133.47
2022-10-18T18:09:11.622Z,102140.34
2022-10-18T18:11:42.263Z,102133.53
2022-10-18T18:14:11.193Z,102135.06
2022-10-18T18:16:45.166Z,102134.25
2022-10-18T18:19:17.499Z,102145.47
2022-10-18T18:21:44.788Z,102139.72
2022-10-18T18:24:13.971Z,102142.66
2022-10-18T18:26:42.826Z,102144.16
2022-10-18T18:29:12.538Z,102140.06
2022-10-18T18:31:43.441Z,102151.06
2022-10-18T18:34:11.564Z,102135.34
2022-10-18T18:36:39.538Z,102147.41
2022-10-18T18:39:07.255Z,102146.81
2022-10-18T18:41:34.809Z,102148.69
2022-10-18T18:44:04.959Z,102154.06
2022-10-18T18:46:39.341Z,102156.78
2022-10-18T18:49:07.839Z,102153.84
2022-10-18T18:51:37.981Z,102156.53
2022-10-18T18:54:06.087Z,102160.06
2022-10-18T18:56:33.355Z,102154.31
2022-10-18T18:59:00.697Z,102161.56
2022-10-18T19:01:32.102Z,102147.28
2022-10-18T19:04:00.260Z,102149.38
2022-10-18T19:06:39.551Z,102144.44
2022-10-18T19:09:19.717Z,102140.94
2022-10-18T19:11:49.152Z,102139.28
2022-10-18T19:14:16.713Z,102148.41
2022-10-18T19:16:48.825Z,102148.88
2022-10-18T19:19:19.943Z,102153.22
2022-10-18T19:21:52.570Z,102163.38
2022-10-18T19:24:21.720Z,102163.03
2022-10-18T19:27:04.841Z,102165.72
2022-10-18T19:29:38.144Z,102163.69
2022-10-18T19:32:12.228Z,102159.59
2022-10-18T19:34:39.585Z,102155.13
2022-10-18T19:37:06.572Z,102161.53
2022-10-18T19:39:35.161Z,102171.72
2022-10-18T19:42:06.624Z,102168.66
2022-10-18T19:44:35.974Z,102169.09
2022-10-18T19:47:10.120Z,102175.78
2022-10-18T19:49:38.777Z,102164.63
2022-10-18T19:52:05.901Z,102173.38
2022-10-18T19:54:57.936Z,102172.94
2022-10-18T19:57:49.963Z,102189.53
2022-10-18T20:03:10.462Z,102191.69
2022-10-18T20:05:37.390Z,102184.28
2022-10-18T20:08:04.408Z,102184.28
2022-10-18T20:10:31.829Z,102202.31
2022-10-18T20:12:59.191Z,102187.06
2022-10-18T20:15:27.001Z,102192.66
2022-10-18T20:17:54.198Z,102197.44
2022-10-18T20:20:21.039Z,102208.22
2022-10-18T20:22:48.127Z,102199.38
2022-10-18T20:25:15.284Z,102204.97
2022-10-18T20:27:42.079Z,102201.31
2022-10-18T20:30:11.383Z,102211.84
2022-10-18T20:32:38.651Z,102216.84
2022-10-18T20:35:06.135Z,102204.28
2022-10-18T20:37:33.938Z,102209.06
2022-10-18T20:40:01.076Z,102197.09
2022-10-18T20:42:27.954Z,102212.19
2022-10-18T20:44:54.894Z,102218.63
2022-10-18T20:47:22.009Z,102211.81
2022-10-18T20:49:48.882Z,102214.72
2022-10-18T20:52:16.107Z,102215.97
2022-10-18T20:54:42.977Z,102212.47
2022-10-18T20:57:09.980Z,102210.22
2022-10-18T20:59:37.795Z,102204.25
2022-10-18T21:02:04.671Z,102209.00
2022-10-18T21:04:31.709Z,102211.09
2022-10-18T21:07:00.405Z,102213.41
2022-10-18T21:09:27.284Z,102198.75
2022-10-18T21:11:54.612Z,102202.25
2022-10-18T21:14:23.601Z,102208.91
2022-10-18T21:16:52.347Z,102201.06
2022-10-18T21:19:26.086Z,102205.59
2022-10-18T21:21:57.239Z,102199.81
2022-10-18T21:24:26.551Z,102212.44
2022-10-18T21:26:53.582Z,102203.16
2022-10-18T21:29:22.638Z,102197.38
2022-10-18T21:31:53.869Z,102203.16
2022-10-18T21:34:21.082Z,102197.38
2022-10-18T21:36:48.732Z,102199.47
2022-10-18T21:39:20.191Z,102205.66
2022-10-18T21:41:47.521Z,102203.19
2022-10-18T21:44:14.872Z,102190.81
2022-10-18T21:46:46.856Z,102197.22
2022-10-18T21:49:14.835Z,102200.72
2022-10-18T21:51:42.780Z,102198.47
2022-10-18T21:54:15.735Z,102200.94
2022-10-18T21:56:43.186Z,102194.97
2022-10-18T21:59:12.260Z,102204.50
2022-10-18T22:01:40.725Z,102190.69
2022-10-18T22:04:21.050Z,102196.66
2022-10-18T22:06:48.309Z,102207.63
2022-10-18T22:09:16.049Z,102204.34
2022-10-18T22:11:48.019Z,102198.34
2022-10-18T22:14:14.988Z,102193.38
2022-10-18T22:16:42.267Z,102186.78
2022-10-18T22:19:09.308Z,102197.53
2022-10-18T22:21:36.293Z,102193.22
2022-10-18T22:24:09.139Z,102198.38
2022-10-18T22:26:39.346Z,102201.28
2022-10-18T22:29:19.829Z,102179.38
2022-10-18T22:31:53.386Z,102174.06
2022-10-18T22:34:28.870Z,102195.91
2022-10-18T22:39:47.746Z,102187.00
2022-10-18T22:42:14.601Z,102181.00
2022-10-18T22:47:33.016Z,102174.94
2022-10-18T22:50:00.281Z,102179.22
2022-10-18T22:52:27.085Z,102167.00
2022-10-18T22:54:54.234Z,102173.97
2022-10-18T22:57:21.096Z,102168.34
2022-10-18T22:59:47.976Z,102162.31
2022-10-18T23:02:15.068Z,102160.00
2022-10-18T23:04:41.934Z,102151.88
2022-10-18T23:07:08.893Z,102143.75
2022-10-18T23:09:37.945Z,102153.84
2022-10-18T23:12:04.828Z,102158.56
2022-10-18T23:14:31.910Z,102162.00
2022-10-18T23:16:59.093Z,102158.88
2022-10-18T23:19:25.967Z,102160.06
2022-10-18T23:21:53.140Z,102162.31
2022-10-18T23:24:19.938Z,102167.41
2022-10-18T23:26:50.735Z,102165.09
2022-10-18T23:29:17.511Z,102167.09
2022-10-18T23:31:44.574Z,102164.78
2022-10-18T23:34:12.607Z,102160.81
2022-10-18T23:36:39.535Z,102162.84
2022-10-18T23:39:06.400Z,102151.25
2022-10-18T23:41:36.946Z,102161.75
2022-10-18T23:44:03.875Z,102161.34
2022-10-18T23:46:30.692Z,102159.84
2022-10-18T23:48:57.604Z,102157.53
2022-10-18T23:51:24.400Z,102154.59
2022-10-18T23:53:51.432Z,102156.63
2022-10-18T23:56:19.140Z,102158.03
2022-10-18T23:58:46.394Z,102156.53
